Time;durP1;ratioP1;P1;durP2;ratioP2;P2;SDS_P1;SDS_P2;PMS_P1;PMS_P2;Temp;Humidity;BMP_temperature;BMP_pressure;BME280_temperature;BME280_humidity;BME280_pressure;Samples;Min_cycle;Max_cycle;Signal;HPM_P1;HPM_P2
2022/06/18 00:02:15;;;;;;;4.47;2.50;;;21.80;52.80;;;;;;4995409;28;20211;-62
2022/06/18 00:04:42;;;;;;;6.67;2.10;;;21.80;53.20;;;;;;4994870;28;20215;-61
2022/06/18 00:07:13;;;;;;;4.80;1.93;;;21.80;54.30;;;;;;4994524;28;20220;-59
2022/06/18 00:09:43;;;;;;;2.83;2.20;;;21.80;55.80;;;;;;4994903;28;20204;-62
2022/06/18 00:15:04;;;;;;;3.33;2.50;;;21.70;55.80;;;;;;4994645;28;20246;-62
2022/06/18 00:17:31;;;;;;;3.20;2.27;;;21.70;57.80;;;;;;4994706;28;20203;-62
2022/06/18 00:19:58;;;;;;;3.60;2.00;;;21.60;58.40;;;;;;4994485;28;20208;-62
2022/06/18 00:22:25;;;;;;;9.30;2.30;;;21.60;77.80;;;;;;4994581;28;20208;-62
2022/06/18 00:24:52;;;;;;;3.10;2.50;;;21.50;60.80;;;;;;4994620;28;20208;-62
2022/06/18 00:27:20;;;;;;;4.57;2.00;;;21.50;61.20;;;;;;4993936;28;20238;-62
2022/06/18 00:29:48;;;;;;;6.67;2.30;;;21.50;60.90;;;;;;4994488;28;20208;-62
2022/06/18 00:32:16;;;;;;;4.63;1.97;;;21.40;61.10;;;;;;4994528;28;20258;-62
2022/06/18 00:34:43;;;;;;;5.47;2.37;;;21.40;62.20;;;;;;4994394;28;20218;-62
2022/06/18 00:37:15;;;;;;;2.07;1.80;;;21.40;63.30;;;;;;4993746;28;20207;-62
2022/06/18 00:39:42;;;;;;;2.43;2.03;;;21.30;67.10;;;;;;4994081;28;20302;-62
2022/06/18 00:42:21;;;;;;;4.97;2.10;;;21.30;66.00;;;;;;4993985;28;20211;-62
2022/06/18 00:44:53;;;;;;;2.90;2.30;;;21.30;66.80;;;;;;4994398;28;20207;-62
2022/06/18 00:47:29;;;;;;;3.03;2.43;;;21.20;70.70;;;;;;4993458;28;20231;-62
2022/06/18 00:50:02;;;;;;;3.67;2.10;;;21.20;72.90;;;;;;4994439;28;20218;-62
2022/06/18 00:52:35;;;;;;;3.07;2.20;;;21.20;74.30;;;;;;4993951;28;20274;-62
2022/06/18 00:55:08;;;;;;;4.00;2.40;;;21.10;75.00;;;;;;4993987;28;20784;-62
2022/06/18 00:57:41;;;;;;;5.53;2.77;;;21.10;79.00;;;;;;4993425;28;20203;-62
2022/06/18 01:00:12;;;;;;;4.53;2.33;;;21.00;79.30;;;;;;4993772;28;20218;-62
2022/06/18 01:02:43;;;;;;;6.13;2.57;;;21.00;82.50;;;;;;4994035;28;20294;-62
2022/06/18 01:05:20;;;;;;;3.10;2.00;;;20.90;84.40;;;;;;4993623;28;20223;-62
2022/06/18 01:07:52;;;;;;;4.60;2.30;;;20.90;85.40;;;;;;4993547;28;20223;-62
2022/06/18 01:10:26;;;;;;;3.47;2.77;;;21.00;85.70;;;;;;4993336;28;20247;-62
2022/06/18 01:12:54;;;;;;;4.10;2.40;;;21.00;84.70;;;;;;4993618;28;20753;-62
2022/06/18 01:15:21;;;;;;;5.27;2.37;;;21.00;84.80;;;;;;4993382;28;20235;-62
2022/06/18 01:17:53;;;;;;;2.67;2.40;;;21.00;85.90;;;;;;4992951;28;20211;-62
2022/06/18 01:20:21;;;;;;;4.97;2.40;;;21.10;84.00;;;;;;4993431;28;20208;-62
2022/06/18 01:22:59;;;;;;;2.90;2.30;;;21.10;84.40;;;;;;4993421;28;20239;-61
2022/06/18 01:25:29;;;;;;;8.50;2.50;;;21.10;83.90;;;;;;4993614;28;20278;-62
2022/06/18 01:27:56;;;;;;;6.30;2.30;;;21.10;85.30;;;;;;4992807;28;20235;-62
2022/06/18 01:30:26;;;;;;;4.03;2.30;;;21.10;84.40;;;;;;4993623;28;20286;-62
2022/06/18 01:32:55;;;;;;;3.93;2.30;;;21.10;84.10;;;;;;4993303;28;20322;-62
2022/06/18 01:35:22;;;;;;;3.40;2.13;;;21.10;84.20;;;;;;4993284;28;20231;-62
2022/06/18 01:37:49;;;;;;;3.40;2.17;;;21.10;83.40;;;;;;4992908;28;20208;-62
2022/06/18 01:40:22;;;;;;;5.77;2.43;;;21.20;84.00;;;;;;4993283;28;20215;-62
2022/06/18 01:42:51;;;;;;;4.27;2.63;;;21.20;85.50;;;;;;4993383;28;20622;-62
2022/06/18 01:45:21;;;;;;;3.10;2.30;;;21.20;85.10;;;;;;4992931;28;20275;-62
2022/06/18 01:47:52;;;;;;;4.10;2.20;;;21.30;79.40;;;;;;4992496;28;20223;-62
2022/06/18 01:50:22;;;;;;;3.67;2.40;;;21.30;80.00;;;;;;4993083;28;20207;-62
2022/06/18 01:52:53;;;;;;;2.53;2.10;;;21.40;77.80;;;;;;4993167;28;20207;-62
2022/06/18 01:55:24;;;;;;;4.00;2.40;;;21.40;75.80;;;;;;4992812;28;20223;-61
2022/06/18 01:57:57;;;;;;;3.53;2.30;;;21.50;75.60;;;;;;4992784;28;20656;-61
2022/06/18 02:00:27;;;;;;;2.70;2.00;;;21.40;76.90;;;;;;4992734;28;20258;-62
2022/06/18 02:02:54;;;;;;;2.63;2.00;;;21.40;76.50;;;;;;4992866;28;20670;-62
2022/06/18 02:05:23;;;;;;;3.47;2.23;;;21.40;76.20;;;;;;4993018;28;20223;-61
2022/06/18 02:07:50;;;;;;;4.87;2.27;;;21.40;75.90;;;;;;4991811;28;20274;-61
2022/06/18 02:10:20;;;;;;;2.90;1.80;;;21.40;74.10;;;;;;4993361;28;20211;-61
2022/06/18 02:12:48;;;;;;;3.30;1.90;;;21.40;76.60;;;;;;4992437;28;20211;-61
2022/06/18 02:15:21;;;;;;;3.13;1.90;;;21.40;74.10;;;;;;4992544;28;20243;-61
2022/06/18 02:17:48;;;;;;;5.67;1.97;;;21.40;76.70;;;;;;4992105;28;20215;-62
2022/06/18 02:20:18;;;;;;;2.87;2.27;;;21.40;92.00;;;;;;4992514;28;20204;-61
2022/06/18 02:22:47;;;;;;;3.57;2.40;;;21.30;78.40;;;;;;4992509;28;20258;-62
2022/06/18 02:25:15;;;;;;;3.17;1.93;;;21.30;76.80;;;;;;4992036;28;20243;-61
2022/06/18 02:27:43;;;;;;;3.60;2.03;;;21.30;75.80;;;;;;4992398;28;20203;-61
2022/06/18 02:30:17;;;;;;;3.10;2.03;;;21.20;76.00;;;;;;4992323;28;20744;-59
2022/06/18 02:32:54;;;;;;;3.20;2.30;;;21.20;76.90;;;;;;4992698;28;20212;-61
2022/06/18 02:35:21;;;;;;;4.67;2.33;;;21.20;77.50;;;;;;4992276;28;20231;-61
2022/06/18 02:37:48;;;;;;;3.47;1.90;;;21.10;77.80;;;;;;4992143;28;20204;-61
2022/06/18 02:40:18;;;;;;;3.00;1.90;;;21.10;77.40;;;;;;4992284;28;20208;-62
2022/06/18 02:42:45;;;;;;;3.07;2.10;;;21.10;80.10;;;;;;4992073;28;20298;-61
2022/06/18 02:45:12;;;;;;;4.93;2.30;;;21.10;80.10;;;;;;4992350;28;20232;-61
2022/06/18 02:47:40;;;;;;;3.53;2.20;;;21.10;81.40;;;;;;4991752;28;20207;-61
2022/06/18 02:50:11;;;;;;;6.87;2.17;;;21.10;82.50;;;;;;4991957;28;20215;-61
2022/06/18 02:52:42;;;;;;;2.87;2.30;;;21.00;80.60;;;;;;4992262;28;20282;-61
2022/06/18 02:55:13;;;;;;;3.40;2.27;;;21.00;84.60;;;;;;4992392;28;20228;-61
2022/06/18 02:57:40;;;;;;;2.50;1.87;;;21.00;82.80;;;;;;4991728;28;20214;-61
2022/06/18 03:00:08;;;;;;;5.87;1.90;;;20.90;82.50;;;;;;4992249;28;20211;-62
2022/06/18 03:02:35;;;;;;;3.67;2.20;;;20.90;84.40;;;;;;4992169;28;20218;-61
2022/06/18 03:05:04;;;;;;;5.27;2.27;;;20.90;85.80;;;;;;4992044;28;20282;-61
2022/06/18 03:07:30;;;;;;;3.73;2.23;;;20.80;84.20;;;;;;4991713;28;20234;-61
2022/06/18 03:12:41;;;;;;;8.67;2.77;;;20.80;88.40;;;;;;4992305;28;20681;-62
2022/06/18 03:15:08;;;;;;;4.13;1.80;;;20.80;89.70;;;;;;4991307;28;20232;-62
2022/06/18 03:17:35;;;;;;;2.43;1.90;;;20.70;90.50;;;;;;4991801;28;20693;-62
2022/06/18 03:20:11;;;;;;;2.60;2.00;;;20.70;90.00;;;;;;4994722;28;20624;-62
2022/06/18 03:22:38;;;;;;;3.10;2.07;;;20.70;92.10;;;;;;4995635;28;20577;-62
2022/06/18 03:25:06;;;;;;;5.13;2.30;;;20.70;93.00;;;;;;4995892;28;20223;-62
2022/06/18 03:27:32;;;;;;;3.40;2.00;;;20.60;92.60;;;;;;4995092;28;20258;-62
2022/06/18 03:29:59;;;;;;;3.00;2.20;;;20.60;92.10;;;;;;4995361;28;20280;-62
2022/06/18 03:32:26;;;;;;;3.30;2.17;;;20.60;93.10;;;;;;4995587;28;20567;-61
2022/06/18 03:34:52;;;;;;;5.33;2.23;;;20.60;95.10;;;;;;4995280;28;20675;-62
2022/06/18 03:37:21;;;;;;;4.37;2.30;;;20.60;94.30;;;;;;4995331;28;20250;-62
2022/06/18 03:39:48;;;;;;;4.00;2.17;;;20.60;95.30;;;;;;4997210;28;20314;-62
2022/06/18 03:42:14;;;;;;;2.63;2.00;;;20.60;97.50;;;;;;4996984;28;20215;-61
2022/06/18 03:44:41;;;;;;;5.37;2.33;;;20.60;98.50;;;;;;4996790;28;20212;-61
2022/06/18 03:47:08;;;;;;;3.73;2.30;;;20.50;99.60;;;;;;4994995;28;20702;-62
2022/06/18 03:49:35;;;;;;;4.10;2.17;;;20.50;99.90;;;;;;4994937;28;20726;-62
2022/06/18 03:52:06;;;;;;;2.43;1.90;;;20.50;99.90;;;;;;4995214;28;20208;-62
2022/06/18 03:54:34;;;;;;;4.43;1.97;;;20.50;99.90;;;;;;4995276;28;20262;-62
2022/06/18 03:57:01;;;;;;;9.20;4.57;;;20.50;99.90;;;;;;4994615;28;20204;-61
2022/06/18 03:59:28;;;;;;;8.13;4.47;;;20.60;99.90;;;;;;4995096;28;20225;-62
2022/06/18 04:01:55;;;;;;;5.07;2.70;;;20.60;99.90;;;;;;4995028;28;20215;-62
2022/06/18 04:04:21;;;;;;;2.80;2.30;;;20.60;99.90;;;;;;4995061;28;20211;-62
2022/06/18 04:06:48;;;;;;;6.63;2.40;;;20.60;99.90;;;;;;4994463;28;20227;-62
2022/06/18 04:09:15;;;;;;;5.90;2.53;;;20.60;99.90;;;;;;4994877;28;20228;-62
2022/06/18 04:11:43;;;;;;;4.33;2.47;;;20.70;99.90;;;;;;4994818;28;20220;-62
2022/06/18 04:14:09;;;;;;;4.23;2.10;;;20.70;99.90;;;;;;4995331;28;20626;-62
2022/06/18 04:16:36;;;;;;;3.70;2.17;;;20.70;99.90;;;;;;4994337;28;20781;-62
2022/06/18 04:19:03;;;;;;;7.57;2.17;;;20.80;99.90;;;;;;4994639;28;20203;-62
2022/06/18 04:21:30;;;;;;;6.20;2.23;;;20.80;99.90;;;;;;4994656;28;20270;-62
2022/06/18 04:23:57;;;;;;;3.30;2.23;;;20.90;99.90;;;;;;4994227;28;20219;-61
2022/06/18 04:26:23;;;;;;;5.97;2.10;;;20.90;99.90;;;;;;4994453;28;20235;-61
2022/06/18 04:28:52;;;;;;;3.80;2.20;;;21.00;99.90;;;;;;4994196;28;20714;-62
2022/06/18 04:31:18;;;;;;;3.07;2.27;;;21.00;99.90;;;;;;4994047;28;20267;-62
2022/06/18 04:33:45;;;;;;;2.60;2.07;;;21.10;99.90;;;;;;4994625;28;20212;-63
2022/06/18 04:36:21;;;;;;;3.47;2.07;;;21.10;99.90;;;;;;4993571;28;20231;-62
2022/06/18 04:38:48;;;;;;;4.23;2.17;;;21.20;99.90;;;;;;4994598;28;20207;-62
2022/06/18 04:41:15;;;;;;;3.33;2.27;;;21.30;99.90;;;;;;4994243;28;20212;-62
2022/06/18 04:43:41;;;;;;;2.43;2.10;;;21.30;99.90;;;;;;4994326;28;20281;-62
2022/06/18 04:46:10;;;;;;;6.60;2.47;;;21.40;99.90;;;;;;4993740;28;20232;-62
2022/06/18 04:48:37;;;;;;;4.53;2.43;;;21.40;99.90;;;;;;4994182;28;20223;-62
2022/06/18 04:51:04;;;;;;;2.57;2.10;;;21.40;99.90;;;;;;4993593;28;20737;-62
2022/06/18 04:53:31;;;;;;;3.93;2.00;;;21.50;99.90;;;;;;4994207;28;20208;-62
2022/06/18 04:55:58;;;;;;;3.87;2.40;;;21.50;99.90;;;;;;4993822;28;20227;-62
2022/06/18 04:58:24;;;;;;;4.70;2.40;;;21.50;99.90;;;;;;4993886;28;20211;-62
2022/06/18 05:00:51;;;;;;;3.50;2.37;;;21.60;99.90;;;;;;4993860;28;20744;-60
2022/06/18 05:03:21;;;;;;;3.43;2.23;;;21.70;99.90;;;;;;4993548;28;20278;-61
2022/06/18 05:05:48;;;;;;;5.40;2.00;;;21.80;99.90;;;;;;4993354;28;20240;-60
2022/06/18 05:08:14;;;;;;;4.20;2.20;;;21.80;99.90;;;;;;4993196;28;20207;-60
2022/06/18 05:10:41;;;;;;;3.57;2.30;;;21.80;99.90;;;;;;4993853;28;20207;-62
2022/06/18 05:13:08;;;;;;;3.90;2.10;;;21.90;99.90;;;;;;4993735;28;20283;-61
2022/06/18 05:15:36;;;;;;;3.63;2.30;;;21.90;99.90;;;;;;4993505;28;20266;-61
2022/06/18 05:18:03;;;;;;;4.07;2.30;;;21.90;99.90;;;;;;4993115;28;20207;-61
2022/06/18 05:20:31;;;;;;;5.57;2.00;;;22.00;99.90;;;;;;4993544;28;20551;-61
2022/06/18 05:22:58;;;;;;;5.33;2.30;;;22.00;99.90;;;;;;4993560;28;20274;-59
2022/06/18 05:25:24;;;;;;;5.33;2.47;;;22.00;99.90;;;;;;4993398;28;20270;-61
2022/06/18 05:27:51;;;;;;;8.93;2.20;;;22.00;99.90;;;;;;4993115;28;20238;-61
2022/06/18 05:30:21;;;;;;;3.93;2.23;;;22.10;99.90;;;;;;4993264;28;20270;-61
2022/06/18 05:32:48;;;;;;;5.07;2.40;;;22.10;99.90;;;;;;4993157;28;20208;-61
2022/06/18 05:35:15;;;;;;;3.70;2.17;;;22.10;99.90;;;;;;4993265;28;20227;-61
2022/06/18 05:37:44;;;;;;;3.63;2.30;;;22.20;99.90;;;;;;4993110;28;20262;-61
2022/06/18 05:40:12;;;;;;;8.43;2.50;;;22.30;99.90;;;;;;4993204;28;20204;-61
2022/06/18 05:42:39;;;;;;;4.07;2.10;;;22.30;99.90;;;;;;4992255;28;20262;-60
2022/06/18 05:45:08;;;;;;;7.40;2.57;;;22.40;99.90;;;;;;4992837;28;20234;-61
2022/06/18 05:47:34;;;;;;;2.97;2.50;;;22.40;99.90;;;;;;4992906;28;20227;-61
2022/06/18 05:50:02;;;;;;;6.43;2.10;;;22.50;99.90;;;;;;4992800;28;20228;-61
2022/06/18 05:52:30;;;;;;;3.13;2.17;;;22.60;99.90;;;;;;4992967;28;20678;-61
2022/06/18 05:54:58;;;;;;;7.47;2.60;;;22.70;99.90;;;;;;4992781;28;20238;-61
2022/06/18 05:57:26;;;;;;;3.83;2.57;;;22.70;99.90;;;;;;4992798;28;20208;-61
2022/06/18 05:59:52;;;;;;;4.03;2.50;;;22.80;99.90;;;;;;4992644;28;20649;-59
2022/06/18 06:02:21;;;;;;;10.63;3.40;;;22.90;99.90;;;;;;4993054;28;20230;-61
2022/06/18 06:04:48;;;;;;;5.50;2.50;;;23.00;99.90;;;;;;4992717;28;20207;-61
2022/06/18 06:07:16;;;;;;;3.57;2.70;;;23.10;99.90;;;;;;4992429;28;20254;-60
2022/06/18 06:12:28;;;;;;;6.03;2.67;;;23.20;99.90;;;;;;4992528;28;20585;-60
2022/06/18 06:14:56;;;;;;;5.53;2.83;;;23.30;99.90;;;;;;4992614;28;20263;-61
2022/06/18 06:17:25;;;;;;;4.00;2.17;;;23.50;99.90;;;;;;4992134;28;20207;-60
2022/06/18 06:19:54;;;;;;;5.60;2.70;;;23.60;99.90;;;;;;4992684;28;20199;-58
2022/06/18 06:22:20;;;;;;;3.30;2.63;;;23.70;99.90;;;;;;4992549;28;20208;-58
2022/06/18 06:24:47;;;;;;;5.43;2.47;;;23.80;99.90;;;;;;4992403;28;20561;-56
2022/06/18 06:27:14;;;;;;;6.67;2.20;;;23.90;99.90;;;;;;4992376;28;20214;-56
2022/06/18 06:29:42;;;;;;;7.63;3.00;;;24.00;99.90;;;;;;4984489;28;20295;-67
2022/06/18 06:32:09;;;;;;;3.40;2.67;;;24.00;99.90;;;;;;4991576;28;20704;-69
2022/06/18 06:34:35;;;;;;;5.50;2.80;;;24.10;99.90;;;;;;4992065;28;20215;-69
2022/06/18 06:37:04;;;;;;;4.90;2.80;;;24.20;99.90;;;;;;4991980;28;20271;-68
2022/06/18 06:39:30;;;;;;;5.23;2.60;;;24.40;99.90;;;;;;4991822;28;20278;-66
2022/06/18 06:41:57;;;;;;;9.27;2.57;;;24.50;99.90;;;;;;4992073;28;20204;-67
2022/06/18 06:44:24;;;;;;;4.67;2.33;;;24.60;99.90;;;;;;4992434;28;20258;-67
2022/06/18 06:46:53;;;;;;;6.80;3.27;;;24.70;99.90;;;;;;4991867;28;20231;-64
2022/06/18 06:49:20;;;;;;;3.77;2.80;;;24.80;99.90;;;;;;4992009;28;20667;-65
2022/06/18 06:51:47;;;;;;;8.33;2.67;;;25.00;99.90;;;;;;4991485;28;20216;-64
2022/06/18 06:54:14;;;;;;;4.83;2.53;;;25.00;99.90;;;;;;4993335;28;20203;-64
2022/06/18 06:59:25;;;;;;;7.63;3.10;;;25.20;99.90;;;;;;4995707;28;20290;-65
2022/06/18 07:01:53;;;;;;;5.47;2.73;;;25.30;99.90;;;;;;4995306;28;20207;-65
2022/06/18 07:04:20;;;;;;;4.13;2.87;;;25.30;99.90;;;;;;4995295;28;20215;-65
2022/06/18 07:06:47;;;;;;;5.47;2.50;;;25.40;99.90;;;;;;4995438;28;20290;-65
2022/06/18 07:09:14;;;;;;;3.30;2.40;;;25.40;99.90;;;;;;4995424;28;20231;-64
2022/06/18 07:11:40;;;;;;;4.07;2.53;;;25.50;99.90;;;;;;4995603;28;20696;-64
2022/06/18 07:14:07;;;;;;;4.93;2.77;;;25.60;99.90;;;;;;4995595;28;20212;-65
2022/06/18 07:16:34;;;;;;;6.73;2.73;;;25.60;99.90;;;;;;4994783;28;20311;-64
2022/06/18 07:19:02;;;;;;;5.53;2.97;;;25.70;99.90;;;;;;4995300;28;20207;-64
2022/06/18 07:21:33;;;;;;;4.43;2.80;;;25.80;99.90;;;;;;4994817;28;20257;-64
2022/06/18 07:24:00;;;;;;;6.50;2.87;;;26.00;99.90;;;;;;4995430;28;20235;-64
2022/06/18 07:26:26;;;;;;;6.23;2.90;;;26.00;99.90;;;;;;4994662;28;20714;-63
2022/06/18 07:28:53;;;;;;;4.23;2.90;;;26.00;99.90;;;;;;4995083;28;20211;-64
2022/06/18 07:31:27;;;;;;;8.10;2.83;;;26.00;99.90;;;;;;4994852;28;20227;-63
2022/06/18 07:33:55;;;;;;;7.40;3.20;;;26.00;99.90;;;;;;4995045;28;20230;-65
2022/06/18 07:36:23;;;;;;;5.93;3.03;;;25.90;99.90;;;;;;4994758;28;20268;-64
2022/06/18 07:38:49;;;;;;;6.60;2.53;;;26.10;99.90;;;;;;4995006;28;20211;-65
2022/06/18 07:41:19;;;;;;;7.43;3.33;;;26.20;99.90;;;;;;4994756;28;20211;-65
2022/06/18 07:43:51;;;;;;;7.67;3.67;;;26.40;99.90;;;;;;4995089;28;20211;-65
2022/06/18 07:46:18;;;;;;;5.93;3.00;;;26.30;99.90;;;;;;4994991;28;20305;-64
2022/06/18 07:48:45;;;;;;;5.07;3.10;;;26.60;99.90;;;;;;4995243;28;20215;-64
2022/06/18 07:51:13;;;;;;;5.73;3.10;;;26.80;99.90;;;;;;4994586;28;20223;-65
2022/06/18 07:53:41;;;;;;;5.70;2.83;;;26.70;99.90;;;;;;4994777;28;20266;-65
2022/06/18 07:56:08;;;;;;;5.30;2.90;;;26.80;99.90;;;;;;4994158;28;20233;-64
2022/06/18 07:58:36;;;;;;;8.50;3.17;;;26.90;99.90;;;;;;4994423;28;20204;-64
2022/06/18 08:01:04;;;;;;;6.73;3.07;;;27.10;99.90;;;;;;4994288;28;20670;-65
2022/06/18 08:03:30;;;;;;;6.00;2.90;;;27.00;99.90;;;;;;4994046;28;20675;-64
2022/06/18 08:05:57;;;;;;;7.30;3.17;;;27.00;99.90;;;;;;4993493;28;20290;-65
2022/06/18 08:08:24;;;;;;;5.67;2.80;;;27.00;99.90;;;;;;4994749;28;20207;-65
2022/06/18 08:10:54;;;;;;;6.57;3.00;;;27.10;99.90;;;;;;4994637;28;20749;-64
2022/06/18 08:13:22;;;;;;;6.43;3.03;;;27.30;99.90;;;;;;4994737;28;20238;-64
2022/06/18 08:15:49;;;;;;;6.87;2.93;;;27.40;99.90;;;;;;4994413;28;20235;-65
2022/06/18 08:18:16;;;;;;;6.23;2.70;;;27.70;99.90;;;;;;4994381;28;20212;-67
2022/06/18 08:20:44;;;;;;;9.00;3.03;;;27.80;99.90;;;;;;4994120;28;20211;-67
2022/06/18 08:23:12;;;;;;;4.77;2.80;;;28.10;99.90;;;;;;4994548;28;20351;-63
2022/06/18 08:25:41;;;;;;;5.10;2.87;;;28.20;99.90;;;;;;4994039;28;20227;-67
2022/06/18 08:28:11;;;;;;;8.20;3.07;;;28.40;99.90;;;;;;4994746;28;20725;-67
2022/06/18 08:30:37;;;;;;;7.23;3.07;;;28.40;99.90;;;;;;4997360;28;20228;-67
2022/06/18 08:33:04;;;;;;;7.93;3.47;;;28.50;99.90;;;;;;4998012;28;20211;-66
2022/06/18 08:35:32;;;;;;;5.00;2.63;;;28.60;99.90;;;;;;4997408;28;20305;-66
2022/06/18 08:37:58;;;;;;;6.57;2.87;;;28.50;99.90;;;;;;4993554;28;20214;-66
2022/06/18 08:40:36;;;;;;;10.17;3.10;;;28.40;99.90;;;;;;4994089;28;20290;-66
2022/06/18 08:43:15;;;;;;;7.30;3.00;;;28.30;99.90;;;;;;4994097;28;20314;-66
2022/06/18 08:45:49;;;;;;;5.60;2.80;;;28.40;99.90;;;;;;4993873;28;20725;-68
2022/06/18 08:48:39;;;;;;;7.60;3.10;;;28.50;99.90;;;;;;4993777;28;20212;-70
2022/06/18 08:51:19;;;;;;;4.47;3.07;;;28.50;99.90;;;;;;4993852;28;20231;-72
2022/06/18 08:54:10;;;;;;;7.50;3.20;;;28.60;99.90;;;;;;4993287;28;20207;-64
2022/06/18 08:56:43;;;;;;;7.63;3.30;;;28.80;99.90;;;;;;4993519;28;20301;-64
2022/06/18 08:59:23;;;;;;;8.87;3.30;;;28.90;99.90;;;;;;4993875;28;20579;-64
2022/06/18 09:01:55;;;;;;;11.33;3.33;;;29.00;99.90;;;;;;4993765;28;20630;-63
2022/06/18 09:04:32;;;;;;;5.73;3.37;;;29.20;99.90;;;;;;4994025;28;20211;-64
2022/06/18 09:07:24;;;;;;;8.07;3.40;;;29.10;99.90;;;;;;4993396;28;20656;-64
2022/06/18 09:10:00;;;;;;;9.57;3.23;;;29.20;99.90;;;;;;4993701;28;20235;-64
2022/06/18 09:12:32;;;;;;;9.27;3.27;;;29.20;99.90;;;;;;4993822;28;20211;-64
2022/06/18 09:15:08;;;;;;;6.57;3.17;;;29.20;99.90;;;;;;4993658;28;20290;-64
2022/06/18 09:17:39;;;;;;;12.60;3.13;;;29.30;99.90;;;;;;4993120;28;20658;-64
2022/06/18 09:20:11;;;;;;;8.17;3.20;;;29.30;99.90;;;;;;4993782;28;20588;-64
2022/06/18 09:22:44;;;;;;;8.37;3.30;;;29.30;99.90;;;;;;4993321;28;20733;-64
2022/06/18 09:25:14;;;;;;;8.67;2.93;;;29.30;99.90;;;;;;4993285;28;20281;-64
2022/06/18 09:27:46;;;;;;;12.77;3.03;;;29.30;99.90;;;;;;4993179;28;20265;-64
2022/06/18 09:30:19;;;;;;;8.60;2.87;;;29.40;99.90;;;;;;4993089;28;20647;-63
2022/06/18 09:32:50;;;;;;;11.63;2.90;;;29.20;99.90;;;;;;4993577;28;20211;-63
2022/06/18 09:35:22;;;;;;;6.27;2.70;;;29.20;99.90;;;;;;4993150;28;20231;-63
2022/06/18 09:37:53;;;;;;;8.53;2.70;;;29.30;99.90;;;;;;4992884;28;20269;-63
2022/06/18 09:40:26;;;;;;;4.93;3.07;;;29.50;99.90;;;;;;4993378;28;20207;-64
2022/06/18 09:43:00;;;;;;;10.70;2.95;;;29.70;99.90;;;;;;4992810;28;20264;-64
2022/06/18 09:45:32;;;;;;;10.30;3.20;;;29.90;99.90;;;;;;4993303;28;20281;-63
2022/06/18 09:48:02;;;;;;;10.23;2.80;;;29.60;99.90;;;;;;4992808;28;20216;-63
2022/06/18 09:50:36;;;;;;;6.13;2.80;;;29.80;99.90;;;;;;4993256;28;20317;-63
2022/06/18 09:53:07;;;;;;;7.55;3.00;;;30.00;99.90;;;;;;4992837;28;20234;-64
2022/06/18 09:55:40;;;;;;;6.35;2.90;;;29.90;99.90;;;;;;4985139;28;20895;-64
2022/06/18 09:58:11;;;;;;;11.95;3.28;;;30.00;99.90;;;;;;4991979;28;20294;-63
2022/06/18 10:00:41;;;;;;;6.75;2.67;;;30.20;99.90;;;;;;4996128;28;20207;-68
2022/06/18 10:06:52;;;;;;;6.10;2.85;;;30.40;99.90;;;;;;4993006;28;20219;-62
2022/06/18 10:08:51;;;;;;;7.05;2.72;;;30.50;99.90;;;;;;4992273;28;20210;-70
2022/06/18 10:11:20;;;;;;;5.93;2.97;;;30.40;99.90;;;;;;4992375;28;20238;-67
2022/06/18 10:13:55;;;;;;;8.65;2.83;;;30.50;99.90;;;;;;4992454;28;20644;-67
2022/06/18 10:16:37;;;;;;;12.23;2.88;;;30.50;99.90;;;;;;4991616;28;20231;-66
2022/06/18 10:19:10;;;;;;;11.30;3.20;;;30.70;99.90;;;;;;4992099;28;20678;-65
2022/06/18 10:21:43;;;;;;;9.13;2.88;;;30.70;99.90;;;;;;4992281;28;20207;-64
2022/06/18 10:24:19;;;;;;;9.27;2.92;;;30.80;99.90;;;;;;4992386;28;20212;-65
2022/06/18 10:26:55;;;;;;;9.75;3.15;;;30.60;99.90;;;;;;4991810;28;20251;-65
2022/06/18 10:29:32;;;;;;;5.47;3.10;;;30.10;99.90;;;;;;4991997;28;20258;-65
2022/06/18 10:32:14;;;;;;;7.50;3.08;;;30.30;99.90;;;;;;4992065;28;20318;-64
2022/06/18 10:34:53;;;;;;;7.97;3.00;;;30.40;99.90;;;;;;4991798;28;20207;-65
2022/06/18 10:37:29;;;;;;;10.25;2.67;;;30.30;99.90;;;;;;4991630;28;20207;-63
2022/06/18 10:40:06;;;;;;;8.65;3.10;;;30.50;99.90;;;;;;4991766;28;20263;-63
2022/06/18 10:42:46;;;;;;;10.32;3.20;;;30.50;99.90;;;;;;4991920;28;20207;-63
2022/06/18 10:45:21;;;;;;;5.90;2.90;;;30.70;99.90;;;;;;4991720;28;20228;-63
2022/06/18 10:47:53;;;;;;;7.15;3.25;;;30.80;99.90;;;;;;4991558;28;20265;-63
2022/06/18 10:50:23;;;;;;;8.50;3.33;;;31.00;99.90;;;;;;4991931;28;20203;-63
2022/06/18 10:52:59;;;;;;;9.55;3.80;;;31.10;99.90;;;;;;4992228;28;20582;-63
2022/06/18 10:55:25;;;;;;;7.93;2.80;;;31.00;99.90;;;;;;4991966;28;20635;-63
2022/06/18 10:57:52;;;;;;;8.90;2.67;;;31.10;99.90;;;;;;4990937;28;20278;-63
2022/06/18 11:00:23;;;;;;;8.50;3.15;;;31.10;99.90;;;;;;4992328;28;20207;-63
2022/06/18 11:02:53;;;;;;;9.73;3.25;;;31.20;99.90;;;;;;4992120;28;20208;-63
2022/06/18 11:05:25;;;;;;;8.45;2.88;;;31.40;99.90;;;;;;4991952;28;20311;-63
2022/06/18 11:07:53;;;;;;;12.15;3.15;;;31.40;99.90;;;;;;4991545;28;20207;-63
2022/06/18 11:10:37;;;;;;;6.53;2.75;;;31.50;99.90;;;;;;4991556;28;20211;-63
2022/06/18 11:13:06;;;;;;;5.90;3.13;;;31.30;99.90;;;;;;4991947;28;20211;-63
2022/06/18 11:15:35;;;;;;;11.23;3.28;;;31.20;99.90;;;;;;4991544;28;20675;-63
2022/06/18 11:18:14;;;;;;;7.63;2.90;;;31.20;99.90;;;;;;4991433;28;20215;-63
2022/06/18 11:20:52;;;;;;;11.10;2.88;;;31.20;99.90;;;;;;4991352;28;20204;-62
2022/06/18 11:23:22;;;;;;;9.75;3.00;;;31.40;99.90;;;;;;4991793;28;20274;-64
2022/06/18 11:25:52;;;;;;;8.70;3.03;;;31.50;99.90;;;;;;4991591;28;20223;-64
2022/06/18 11:28:22;;;;;;;16.80;3.45;;;31.50;99.90;;;;;;4991522;28;20216;-63
2022/06/18 11:30:52;;;;;;;11.00;2.90;;;31.70;99.90;;;;;;4991303;28;20235;-63
2022/06/18 11:33:29;;;;;;;7.22;2.53;;;31.80;99.90;;;;;;4991424;28;20254;-63
2022/06/18 11:35:56;;;;;;;14.05;2.90;;;31.60;99.90;;;;;;4991504;28;20274;-62
2022/06/18 11:38:28;;;;;;;10.40;2.88;;;31.80;99.90;;;;;;4991215;28;20212;-62
2022/06/18 11:40:59;;;;;;;8.95;2.72;;;31.80;99.90;;;;;;4992464;28;20619;-64
2022/06/18 11:43:40;;;;;;;15.00;2.92;;;31.90;99.90;;;;;;4994843;28;20242;-64
2022/06/18 11:46:12;;;;;;;13.52;3.20;;;32.00;99.90;;;;;;4994638;28;20227;-66
2022/06/18 11:48:46;;;;;;;9.00;2.58;;;32.10;99.90;;;;;;4994920;28;20238;-68
2022/06/18 11:51:21;;;;;;;10.43;2.75;;;32.00;99.90;;;;;;4994970;28;20223;-66
2022/06/18 11:53:53;;;;;;;9.35;2.60;;;32.10;99.90;;;;;;4994846;28;20210;-64
2022/06/18 11:56:26;;;;;;;10.30;3.05;;;32.00;99.90;;;;;;4994532;28;20305;-63
2022/06/18 11:58:58;;;;;;;12.98;2.60;;;31.90;99.90;;;;;;4994802;28;20250;-65
2022/06/18 12:01:30;;;;;;;10.98;2.85;;;32.00;99.90;;;;;;4994734;28;20628;-65
2022/06/18 12:04:05;;;;;;;14.15;3.00;;;31.90;99.90;;;;;;4994716;28;20258;-64
2022/06/18 12:06:45;;;;;;;12.57;3.30;;;32.00;99.90;;;;;;4993884;28;20258;-65
2022/06/18 12:09:13;;;;;;;10.32;2.53;;;32.00;99.90;;;;;;4994768;28;20211;-65
2022/06/18 12:11:59;;;;;;;11.68;2.70;;;32.00;99.90;;;;;;4994642;28;20227;-64
2022/06/18 12:14:31;;;;;;;9.68;2.78;;;32.10;99.90;;;;;;4994343;28;20207;-65
2022/06/18 12:17:03;;;;;;;10.82;3.65;;;32.00;99.90;;;;;;4993794;28;20232;-64
2022/06/18 12:19:40;;;;;;;14.38;3.30;;;32.10;99.90;;;;;;4994444;28;20204;-65
2022/06/18 12:22:16;;;;;;;9.48;2.58;;;32.30;99.90;;;;;;4995034;28;20238;-65
2022/06/18 12:24:49;;;;;;;9.35;3.25;;;32.40;99.90;;;;;;4993971;28;20219;-64
2022/06/18 12:27:20;;;;;;;11.20;3.70;;;32.50;99.90;;;;;;4993805;28;20203;-66
2022/06/18 12:30:04;;;;;;;12.25;3.63;;;32.40;99.90;;;;;;4994667;28;20204;-66
2022/06/18 12:32:46;;;;;;;13.02;3.40;;;32.20;99.90;;;;;;4994222;28;20232;-65
2022/06/18 12:35:26;;;;;;;12.13;2.70;;;32.30;99.90;;;;;;4994083;28;20227;-65
2022/06/18 12:38:05;;;;;;;8.65;2.67;;;32.40;99.90;;;;;;4993316;28;20212;-66
2022/06/18 12:40:39;;;;;;;13.30;3.10;;;32.40;99.90;;;;;;4994234;28;20238;-65
2022/06/18 12:43:13;;;;;;;13.38;3.17;;;32.60;99.90;;;;;;4993953;28;20608;-66
2022/06/18 12:45:49;;;;;;;11.60;2.97;;;32.30;99.90;;;;;;4993767;28;20228;-64
2022/06/18 12:48:23;;;;;;;14.50;4.32;;;32.50;99.90;;;;;;4993104;28;20204;-65
2022/06/18 12:50:59;;;;;;;15.43;3.83;;;32.60;99.90;;;;;;4993712;28;20669;-64
2022/06/18 12:54:01;;;;;;;15.63;3.92;;;32.80;99.90;;;;;;4993078;28;20261;-65
2022/06/18 12:56:34;;;;;;;16.60;3.70;;;33.00;99.90;;;;;;4989598;28;20235;-66
2022/06/18 12:59:12;;;;;;;13.48;3.40;;;32.90;99.90;;;;;;4993502;28;20207;-63
2022/06/18 13:01:47;;;;;;;14.57;2.55;;;32.80;99.90;;;;;;4993616;28;20211;-63
2022/06/18 13:04:27;;;;;;;13.57;3.08;;;33.00;99.90;;;;;;4993646;28;20572;-64
2022/06/18 13:06:59;;;;;;;13.07;2.70;;;32.90;99.90;;;;;;4992652;28;20227;-63
2022/06/18 13:09:35;;;;;;;9.60;2.65;;;32.90;99.90;;;;;;4993806;28;20641;-63
2022/06/18 13:12:16;;;;;;;13.40;2.67;;;32.90;99.90;;;;;;4993170;28;20266;-63
2022/06/18 13:14:53;;;;;;;5.57;2.40;;;32.60;99.90;;;;;;4993211;28;20277;-63
2022/06/18 13:17:24;;;;;;;12.32;3.40;;;32.70;99.90;;;;;;4992605;28;20215;-64